Time,TemperatureF,DewpointF,PressureIn,WindDirection,WindDirectionDegrees,WindSpeedMPH,WindSpeedGustMPH,Humidity,HourlyPrecipIn,Conditions,Clouds,dailyrainin,SoftwareType,DateUTC
2013-02-21 00:01:00,21.0,16.0,29.89,South,186,7.0,9.0,81,0.00,,,0.00,,2013-02-21 07:01:00,
2013-02-21 00:11:00,20.0,15.0,29.89,South,185,5.0,10.0,81,0.00,,,0.00,,2013-02-21 07:11:00,
2013-02-21 00:21:00,20.0,15.0,29.89,South,185,5.0,10.0,81,0.00,,,0.00,,2013-02-21 07:21:00,
2013-02-21 00:31:00,20.0,15.0,29.89,South,185,6.0,8.0,82,0.00,,,0.00,,2013-02-21 07:31:00,
2013-02-21 00:41:00,20.0,16.0,29.89,South,185,5.0,8.0,83,0.00,,,0.00,,2013-02-21 07:41:00,
2013-02-21 00:52:00,20.0,16.0,29.89,South,185,5.0,8.0,83,0.00,,,0.00,,2013-02-21 07:52:00,
2013-02-21 01:01:00,20.0,16.0,29.90,South,185,5.0,7.0,84,0.00,,,0.00,,2013-02-21 08:01:00,
2013-02-21 01:11:00,20.0,16.0,29.90,South,185,5.0,7.0,84,0.00,,,0.00,,2013-02-21 08:11:00,
2013-02-21 01:21:00,19.0,16.0,29.90,South,180,6.0,9.0,86,0.00,,,0.00,,2013-02-21 08:21:00,
2013-02-21 01:31:00,19.0,16.0,29.90,South,187,4.0,8.0,86,0.00,,,0.00,,2013-02-21 08:31:00,
2013-02-21 01:41:00,19.0,16.0,29.90,South,187,4.0,8.0,86,0.00,,,0.00,,2013-02-21 08:41:00,
2013-02-21 01:52:00,19.0,16.0,29.90,South,178,4.0,6.0,86,0.00,,,0.00,,2013-02-21 08:52:00,
2013-02-21 02:01:00,19.0,16.0,29.90,South,171,3.0,6.0,86,0.00,,,0.00,,2013-02-21 09:01:00,
2013-02-21 02:11:00,19.0,16.0,29.90,South,171,3.0,6.0,86,0.00,,,0.00,,2013-02-21 09:11:00,
2013-02-21 02:22:00,19.0,16.0,29.90,South,182,3.0,8.0,86,0.00,,,0.00,,2013-02-21 09:22:00,
2013-02-21 02:31:00,18.0,15.0,29.90,SSE,157,5.0,7.0,87,0.00,,,0.00,,2013-02-21 09:31:00,
2013-02-21 02:41:00,18.0,15.0,29.90,SSE,157,5.0,7.0,87,0.00,,,0.00,,2013-02-21 09:41:00,
2013-02-21 02:52:00,18.0,15.0,29.90,SSE,159,5.0,7.0,88,0.00,,,0.00,,2013-02-21 09:52:00,
2013-02-21 03:01:00,17.0,14.0,29.90,South,175,4.0,6.0,88,0.00,,,0.00,,2013-02-21 10:01:00,
2013-02-21 03:11:00,17.0,14.0,29.90,South,175,4.0,6.0,88,0.00,,,0.00,,2013-02-21 10:11:00,
2013-02-21 03:21:00,17.0,14.0,29.90,South,171,1.0,4.0,87,0.00,,,0.00,,2013-02-21 10:21:00,
2013-02-21 03:31:00,17.0,14.0,29.91,SW,227,1.0,3.0,88,0.00,,,0.00,,2013-02-21 10:31:00,
2013-02-21 03:41:00,17.0,14.0,29.91,SW,227,1.0,3.0,88,0.00,,,0.00,,2013-02-21 10:41:00,
2013-02-21 03:51:00,17.0,14.0,29.90,SW,227,0.0,0.0,89,0.00,,,0.00,,2013-02-21 10:51:00,
2013-02-21 04:00:00,17.0,14.0,29.91,SW,217,1.0,2.0,89,0.00,,,0.00,,2013-02-21 11:00:00,
2013-02-21 04:10:00,17.0,14.0,29.91,SW,217,1.0,2.0,89,0.00,,,0.00,,2013-02-21 11:10:00,
2013-02-21 04:21:00,17.0,14.0,29.92,SW,217,0.0,1.0,89,0.00,,,0.00,,2013-02-21 11:21:00,
2013-02-21 04:31:00,17.0,14.0,29.92,SW,217,0.0,1.0,89,0.00,,,0.00,,2013-02-21 11:31:00,
2013-02-21 04:41:00,17.0,14.0,29.92,SW,217,0.0,1.0,89,0.00,,,0.00,,2013-02-21 11:41:00,
2013-02-21 04:51:00,17.0,14.0,29.92,SW,217,0.0,0.0,89,0.00,,,0.00,,2013-02-21 11:51:00,
2013-02-21 05:01:00,17.0,14.0,29.92,SW,217,0.0,0.0,89,0.00,,,0.00,,2013-02-21 12:01:00,
2013-02-21 05:11:00,17.0,14.0,29.92,SW,217,0.0,0.0,89,0.00,,,0.00,,2013-02-21 12:11:00,
2013-02-21 05:21:00,17.0,15.0,29.93,SW,217,0.0,0.0,90,0.00,,,0.00,,2013-02-21 12:21:00,
2013-02-21 05:32:00,17.0,15.0,29.93,SW,217,0.0,0.0,90,0.00,,,0.00,,2013-02-21 12:32:00,
2013-02-21 05:42:00,17.0,15.0,29.93,SW,217,0.0,0.0,90,0.00,,,0.00,,2013-02-21 12:42:00,
2013-02-21 05:52:00,17.0,15.0,29.94,SW,217,0.0,0.0,91,0.00,,,0.00,,2013-02-21 12:52:00,
2013-02-21 06:01:00,18.0,16.0,29.94,SW,217,0.0,0.0,90,0.00,,,0.00,,2013-02-21 13:01:00,
2013-02-21 06:12:00,18.0,16.0,29.94,SW,217,0.0,0.0,90,0.00,,,0.00,,2013-02-21 13:12:00,
2013-02-21 06:22:00,18.0,16.0,29.95,SW,217,0.0,0.0,90,0.00,,,0.00,,2013-02-21 13:22:00,
2013-02-21 06:31:00,18.0,16.0,29.95,SW,217,0.0,0.0,90,0.00,,,0.00,,2013-02-21 13:31:00,
2013-02-21 06:41:00,18.0,16.0,29.95,SW,217,0.0,0.0,90,0.00,,,0.00,,2013-02-21 13:41:00,
2013-02-21 06:52:00,19.0,16.0,29.95,SW,217,0.0,0.0,89,0.00,,,0.00,,2013-02-21 13:52:00,
2013-02-21 07:01:00,19.0,16.0,29.95,SW,217,0.0,2.0,89,0.00,,,0.00,,2013-02-21 14:01:00,
2013-02-21 07:11:00,19.0,16.0,29.95,SW,217,0.0,2.0,89,0.00,,,0.00,,2013-02-21 14:11:00,
2013-02-21 07:21:00,19.0,16.0,29.95,SW,217,0.0,2.0,89,0.00,,,0.00,,2013-02-21 14:21:00,
2013-02-21 07:31:00,19.0,16.0,29.95,SE,145,1.0,3.0,88,0.00,,,0.00,,2013-02-21 14:31:00,
2013-02-21 07:41:00,19.0,16.0,29.95,SE,145,1.0,3.0,88,0.00,,,0.00,,2013-02-21 14:41:00,
2013-02-21 07:52:00,19.0,16.0,29.96,SE,144,0.0,2.0,89,0.00,,,0.00,,2013-02-21 14:52:00,
2013-02-21 08:01:00,19.0,16.0,29.96,ESE,110,1.0,3.0,89,0.00,,,0.00,,2013-02-21 15:01:00,
2013-02-21 08:12:00,19.0,16.0,29.96,ESE,110,1.0,3.0,89,0.00,,,0.00,,2013-02-21 15:12:00,
2013-02-21 08:21:00,20.0,17.0,29.96,East,90,0.0,2.0,89,0.00,,,0.00,,2013-02-21 15:21:00,
2013-02-21 08:31:00,20.0,17.0,29.97,ESE,107,1.0,3.0,87,0.00,,,0.00,,2013-02-21 15:31:00,
2013-02-21 08:41:00,20.0,17.0,29.97,ESE,107,1.0,3.0,87,0.00,,,0.00,,2013-02-21 15:41:00,
2013-02-21 08:52:00,20.0,17.0,29.97,East,101,2.0,5.0,87,0.00,,,0.00,,2013-02-21 15:52:00,
2013-02-21 09:01:00,21.0,17.0,29.96,SSE,155,3.0,5.0,86,0.00,,,0.00,,2013-02-21 16:01:00,
2013-02-21 09:12:00,22.0,18.0,29.96,SE,135,2.0,6.0,84,0.00,,,0.00,,2013-02-21 16:12:00,
2013-02-21 09:21:00,22.0,18.0,29.96,SE,135,2.0,6.0,84,0.00,,,0.00,,2013-02-21 16:21:00,
2013-02-21 09:31:00,23.0,18.0,29.96,SE,140,3.0,6.0,80,0.00,,,0.00,,2013-02-21 16:31:00,
2013-02-21 09:42:00,24.0,18.0,29.96,SSE,155,2.0,5.0,78,0.00,,,0.00,,2013-02-21 16:42:00,
2013-02-21 09:52:00,24.0,18.0,29.96,SSE,155,2.0,5.0,78,0.00,,,0.00,,2013-02-21 16:52:00,
2013-02-21 10:01:00,26.0,19.0,29.96,SE,137,0.0,4.0,74,0.00,,,0.00,,2013-02-21 17:01:00,
2013-02-21 10:11:00,26.0,19.0,29.96,SE,137,0.0,4.0,74,0.00,,,0.00,,2013-02-21 17:11:00,
2013-02-21 10:21:00,25.0,19.0,29.96,SE,133,5.0,9.0,76,0.00,,,0.00,,2013-02-21 17:21:00,
2013-02-21 10:32:00,25.0,19.0,29.96,East,79,3.0,9.0,79,0.00,,,0.00,,2013-02-21 17:32:00,
2013-02-21 10:41:00,25.0,19.0,29.96,East,79,3.0,9.0,79,0.00,,,0.00,,2013-02-21 17:41:00,
2013-02-21 10:52:00,26.0,20.0,29.96,ESE,108,4.0,7.0,77,0.00,,,0.00,,2013-02-21 17:52:00,
2013-02-21 11:01:00,26.0,19.0,29.96,East,84,1.0,6.0,76,0.00,,,0.00,,2013-02-21 18:01:00,
2013-02-21 11:11:00,26.0,19.0,29.96,East,84,1.0,6.0,76,0.00,,,0.00,,2013-02-21 18:11:00,
2013-02-21 11:21:00,26.0,19.0,29.96,ENE,71,3.0,8.0,76,0.00,,,0.00,,2013-02-21 18:21:00,
2013-02-21 11:31:00,28.0,20.0,29.96,East,96,5.0,9.0,72,0.00,,,0.00,,2013-02-21 18:31:00,
2013-02-21 11:42:00,28.0,20.0,29.96,East,96,5.0,9.0,72,0.00,,,0.00,,2013-02-21 18:42:00,
2013-02-21 11:52:00,28.0,20.0,29.95,East,82,7.0,10.0,73,0.00,,,0.00,,2013-02-21 18:52:00,
2013-02-21 12:01:00,28.0,20.0,29.95,SE,133,4.0,9.0,70,0.00,,,0.00,,2013-02-21 19:01:00,
2013-02-21 12:11:00,28.0,20.0,29.95,SE,133,4.0,9.0,70,0.00,,,0.00,,2013-02-21 19:11:00,
2013-02-21 12:21:00,28.0,20.0,29.95,ENE,63,3.0,9.0,71,0.00,,,0.00,,2013-02-21 19:21:00,
2013-02-21 12:31:00,28.0,20.0,29.95,ENE,63,3.0,9.0,71,0.00,,,0.00,,2013-02-21 19:31:00,
2013-02-21 12:41:00,28.0,20.0,29.95,ENE,63,3.0,9.0,71,0.00,,,0.00,,2013-02-21 19:41:00,
2013-02-21 12:52:00,28.0,19.0,29.94,ESE,123,6.0,9.0,69,0.00,,,0.00,,2013-02-21 19:52:00,
2013-02-21 13:01:00,27.0,19.0,29.94,ENE,71,5.0,10.0,71,0.00,,,0.00,,2013-02-21 20:01:00,
2013-02-21 13:11:00,28.0,20.0,29.93,SE,126,3.0,8.0,72,0.00,,,0.00,,2013-02-21 20:11:00,
2013-02-21 13:21:00,28.0,20.0,29.93,SE,126,3.0,8.0,72,0.00,,,0.00,,2013-02-21 20:21:00,
2013-02-21 13:31:00,27.0,20.0,29.93,East,94,2.0,5.0,74,0.00,,,0.00,,2013-02-21 20:31:00,
2013-02-21 13:41:00,27.0,20.0,29.93,East,94,2.0,5.0,74,0.00,,,0.00,,2013-02-21 20:41:00,
2013-02-21 13:52:00,27.0,20.0,29.93,ENE,59,1.0,4.0,75,0.00,,,0.00,,2013-02-21 20:52:00,
2013-02-21 14:02:00,27.0,19.0,29.93,ENE,60,1.0,5.0,72,0.00,,,0.00,,2013-02-21 21:02:00,
2013-02-21 14:11:00,28.0,20.0,29.92,ENE,76,2.0,5.0,72,0.00,,,0.00,,2013-02-21 21:11:00,
2013-02-21 14:21:00,28.0,20.0,29.92,ENE,76,2.0,5.0,72,0.00,,,0.00,,2013-02-21 21:21:00,
2013-02-21 14:31:00,27.0,20.0,29.93,NNE,23,3.0,9.0,74,0.00,,,0.00,,2013-02-21 21:31:00,
2013-02-21 14:41:00,27.0,19.0,29.92,North,5,3.0,7.0,72,0.00,,,0.00,,2013-02-21 21:41:00,
2013-02-21 14:52:00,27.0,19.0,29.92,North,5,3.0,7.0,72,0.00,,,0.00,,2013-02-21 21:52:00,
2013-02-21 15:01:00,27.0,19.0,29.93,ENE,69,4.0,8.0,71,0.00,,,0.00,,2013-02-21 22:01:00,
2013-02-21 15:11:00,27.0,19.0,29.93,ENE,69,4.0,8.0,71,0.00,,,0.00,,2013-02-21 22:11:00,
2013-02-21 15:21:00,27.0,19.0,29.93,NE,53,2.0,5.0,71,0.00,,,0.00,,2013-02-21 22:21:00,
2013-02-21 15:31:00,27.0,19.0,29.93,NE,46,0.0,3.0,70,0.00,,,0.00,,2013-02-21 22:31:00,
2013-02-21 15:41:00,27.0,19.0,29.93,NE,46,0.0,3.0,70,0.00,,,0.00,,2013-02-21 22:41:00,
2013-02-21 15:52:00,28.0,20.0,29.93,NNE,26,2.0,4.0,70,0.00,,,0.00,,2013-02-21 22:52:00,
2013-02-21 16:01:00,28.0,20.0,29.93,ESE,121,2.0,5.0,70,0.00,,,0.00,,2013-02-21 23:01:00,
2013-02-21 16:11:00,28.0,20.0,29.93,ESE,121,2.0,5.0,70,0.00,,,0.00,,2013-02-21 23:11:00,
2013-02-21 16:21:00,28.0,19.0,29.93,ESE,119,1.0,4.0,69,0.00,,,0.00,,2013-02-21 23:21:00,
2013-02-21 16:31:00,28.0,19.0,29.92,ESE,119,1.0,3.0,68,0.00,,,0.00,,2013-02-21 23:31:00,
2013-02-21 16:41:00,28.0,19.0,29.92,ESE,119,1.0,3.0,68,0.00,,,0.00,,2013-02-21 23:41:00,
2013-02-21 16:52:00,27.0,18.0,29.93,NNE,31,2.0,4.0,69,0.00,,,0.00,,2013-02-21 23:52:00,
2013-02-21 17:01:00,27.0,18.0,29.93,ENE,66,3.0,5.0,68,0.00,,,0.00,,2013-02-22 00:01:00,
2013-02-21 17:11:00,27.0,18.0,29.93,ENE,66,3.0,5.0,68,0.00,,,0.00,,2013-02-22 00:11:00,
2013-02-21 17:21:00,27.0,19.0,29.93,East,83,1.0,2.0,70,0.00,,,0.00,,2013-02-22 00:21:00,
2013-02-21 17:31:00,26.0,18.0,29.93,NNE,25,0.0,2.0,71,0.00,,,0.00,,2013-02-22 00:31:00,
2013-02-21 17:41:00,26.0,18.0,29.93,NNE,25,0.0,2.0,71,0.00,,,0.00,,2013-02-22 00:41:00,
2013-02-21 17:52:00,26.0,18.0,29.93,NNE,25,0.0,1.0,70,0.00,,,0.00,,2013-02-22 00:52:00,
2013-02-21 18:01:00,26.0,19.0,29.93,SSW,206,2.0,4.0,73,0.00,,,0.00,,2013-02-22 01:01:00,
2013-02-21 18:11:00,26.0,19.0,29.93,SSW,206,2.0,4.0,73,0.00,,,0.00,,2013-02-22 01:11:00,
2013-02-21 18:21:00,26.0,19.0,29.93,SSW,207,2.0,3.0,75,0.00,,,0.00,,2013-02-22 01:21:00,
2013-02-21 18:32:00,26.0,19.0,29.93,SSW,207,2.0,3.0,75,0.00,,,0.00,,2013-02-22 01:32:00,
2013-02-21 18:42:00,26.0,19.0,29.93,SSW,207,2.0,3.0,75,0.00,,,0.00,,2013-02-22 01:42:00,
2013-02-21 18:52:00,26.0,19.0,29.94,SSW,207,0.0,2.0,73,0.00,,,0.00,,2013-02-22 01:52:00,
2013-02-21 19:01:00,26.0,19.0,29.94,South,169,2.0,3.0,73,0.00,,,0.00,,2013-02-22 02:01:00,
2013-02-21 19:11:00,26.0,19.0,29.94,South,169,2.0,3.0,73,0.00,,,0.00,,2013-02-22 02:11:00,
2013-02-21 19:21:00,25.0,18.0,29.94,South,173,2.0,3.0,74,0.00,,,0.00,,2013-02-22 02:21:00,
2013-02-21 19:31:00,24.0,18.0,29.94,SSW,198,2.0,4.0,77,0.00,,,0.00,,2013-02-22 02:31:00,
2013-02-21 19:42:00,24.0,18.0,29.94,SSW,198,2.0,4.0,77,0.00,,,0.00,,2013-02-22 02:42:00,
2013-02-21 19:52:00,23.0,18.0,29.94,SSW,203,4.0,6.0,80,0.00,,,0.00,,2013-02-22 02:52:00,
2013-02-21 20:01:00,23.0,18.0,29.94,SSE,166,1.0,4.0,80,0.00,,,0.00,,2013-02-22 03:01:00,
2013-02-21 20:11:00,23.0,18.0,29.94,SSE,166,1.0,4.0,80,0.00,,,0.00,,2013-02-22 03:11:00,
2013-02-21 20:21:00,23.0,18.0,29.94,SSE,166,1.0,4.0,80,0.00,,,0.00,,2013-02-22 03:21:00,
2013-02-21 20:31:00,21.0,16.0,29.94,NW,315,2.0,3.0,80,0.00,,,0.00,,2013-02-22 03:31:00,
2013-02-21 20:41:00,21.0,16.0,29.94,NW,315,2.0,3.0,80,0.00,,,0.00,,2013-02-22 03:41:00,
2013-02-21 20:52:00,21.0,16.0,29.94,West,277,2.0,5.0,80,0.00,,,0.00,,2013-02-22 03:52:00,
2013-02-21 21:01:00,20.0,15.0,29.95,NE,53,1.0,4.0,81,0.00,,,0.00,,2013-02-22 04:01:00,
2013-02-21 21:11:00,20.0,15.0,29.95,NE,53,1.0,4.0,81,0.00,,,0.00,,2013-02-22 04:11:00,
2013-02-21 21:21:00,20.0,15.0,29.95,ENE,65,3.0,4.0,82,0.00,,,0.00,,2013-02-22 04:21:00,
2013-02-21 21:31:00,19.0,14.0,29.95,NNW,329,3.0,4.0,80,0.00,,,0.00,,2013-02-22 04:31:00,
2013-02-21 21:41:00,19.0,14.0,29.95,NNW,329,3.0,4.0,80,0.00,,,0.00,,2013-02-22 04:41:00,
2013-02-21 21:51:00,18.0,15.0,29.96,SW,230,2.0,5.0,86,0.00,,,0.00,,2013-02-22 04:51:00,
2013-02-21 22:01:00,18.0,14.0,29.96,North,355,2.0,4.0,85,0.00,,,0.00,,2013-02-22 05:01:00,
2013-02-21 22:11:00,18.0,14.0,29.96,North,355,2.0,4.0,85,0.00,,,0.00,,2013-02-22 05:11:00,
2013-02-21 22:22:00,18.0,14.0,29.96,NW,316,5.0,8.0,84,0.00,,,0.00,,2013-02-22 05:22:00,
2013-02-21 22:32:00,18.0,14.0,29.96,WNW,294,1.0,4.0,83,0.00,,,0.00,,2013-02-22 05:32:00,
2013-02-21 22:41:00,18.0,14.0,29.96,WNW,294,1.0,4.0,83,0.00,,,0.00,,2013-02-22 05:41:00,
2013-02-21 22:52:00,18.0,14.0,29.96,WNW,294,0.0,3.0,85,0.00,,,0.00,,2013-02-22 05:52:00,
2013-02-21 23:01:00,18.0,14.0,29.96,WNW,299,1.0,3.0,83,0.00,,,0.00,,2013-02-22 06:01:00,
2013-02-21 23:11:00,18.0,14.0,29.96,WNW,299,1.0,3.0,83,0.00,,,0.00,,2013-02-22 06:11:00,
2013-02-21 23:21:00,17.0,14.0,29.96,SW,227,1.0,3.0,87,0.00,,,0.00,,2013-02-22 06:21:00,
2013-02-21 23:31:00,17.0,13.0,29.96,WNW,291,2.0,4.0,85,0.00,,,0.00,,2013-02-22 06:31:00,
2013-02-21 23:41:00,17.0,13.0,29.96,WNW,291,2.0,4.0,85,0.00,,,0.00,,2013-02-22 06:41:00,
2013-02-21 23:52:00,17.0,14.0,29.96,WSW,240,3.0,6.0,86,0.00,,,0.00,,2013-02-22 06:52:00,